This is the latest recevied weather packets stored in our database for station/object OK1FET-5. If no packets are shown the sender has not sent any weather packets the latest 10 day(s).
| Time | Temp. | Humidity | Pressure | Rain* | Wind** | Luminosity | Snow |
|---|---|---|---|---|---|---|---|
| 1777675106 | 11.67° C | 36% | 1026.5 hPa | - | - | - | - |
| 1777674812 | 12.22° C | 36% | 1026.5 hPa | - | - | - | - |
| 1777674519 | 12.78° C | 36% | 1026.5 hPa | - | - | - | - |
| 1777674225 | 12.78° C | 36% | 1026.6 hPa | - | - | - | - |
| 1777673930 | 12.78° C | 36% | 1026.5 hPa | - | - | - | - |
| 1777673635 | 12.78° C | 36% | 1026.6 hPa | - | - | - | - |
| 1777673046 | 12.78° C | 35% | 1026.6 hPa | - | - | - | - |
| 1777672752 | 12.78° C | 35% | 1026.6 hPa | - | - | - | - |
| 1777672457 | 12.78° C | 35% | 1026.6 hPa | - | - | - | - |
| 1777672163 | 12.78° C | 35% | 1026.6 hPa | - | - | - | - |
| 1777671869 | 12.78° C | 35% | 1026.5 hPa | - | - | - | - |
| 1777671575 | 12.22° C | 35% | 1026.5 hPa | - | - | - | - |
| 1777671280 | 12.22° C | 35% | 1026.5 hPa | - | - | - | - |
| 1777670986 | 12.22° C | 36% | 1026.5 hPa | - | - | - | - |
| 1777670692 | 12.22° C | 35% | 1026.5 hPa | - | - | - | - |
| 1777670397 | 12.22° C | 35% | 1026.5 hPa | - | - | - | - |
| 1777670103 | 12.22° C | 38% | 1026.6 hPa | - | - | - | - |
| 1777669809 | 12.22° C | 40% | 1026.6 hPa | - | - | - | - |
| 1777669514 | 13.33° C | 37% | 1026.6 hPa | - | - | - | - |
| 1777669220 | 14.44° C | 34% | 1026.5 hPa | - | - | - | - |
| 1777668925 | 15.56° C | 31% | 1026.5 hPa | - | - | - | - |
| 1777668630 | 15.56° C | 31% | 1026.5 hPa | - | - | - | - |
| 1777668336 | 15.56° C | 31% | 1026.5 hPa | - | - | - | - |
| 1777667747 | 15.56° C | 31% | 1026.5 hPa | - | - | - | - |
| 1777667452 | 15.56° C | 31% | 1026.5 hPa | - | - | - | - |
* Rain since midnight (hover to see other rain measurements)
** Current wind speed in m/s (hover to see current wind gust speed)